sensor_id;sensor_type;location;lat;lon;timestamp;P1;durP1;ratioP1;P2;durP2;ratioP2
5475;SDS011;2760;50.000;9.194;2022-08-03T00:01:04;2.90;;;2.70;;
5475;SDS011;2760;50.000;9.194;2022-08-03T00:03:32;2.30;;;2.20;;
5475;SDS011;2760;50.000;9.194;2022-08-03T00:05:59;4.63;;;2.80;;
5475;SDS011;2760;50.000;9.194;2022-08-03T00:08:26;4.20;;;2.93;;
5475;SDS011;2760;50.000;9.194;2022-08-03T00:10:53;4.10;;;2.70;;
5475;SDS011;2760;50.000;9.194;2022-08-03T00:13:20;3.23;;;3.03;;
5475;SDS011;2760;50.000;9.194;2022-08-03T00:15:47;2.80;;;2.60;;
5475;SDS011;2760;50.000;9.194;2022-08-03T00:18:16;3.20;;;2.73;;
5475;SDS011;2760;50.000;9.194;2022-08-03T00:20:43;3.63;;;2.77;;
5475;SDS011;2760;50.000;9.194;2022-08-03T00:23:10;3.53;;;3.30;;
5475;SDS011;2760;50.000;9.194;2022-08-03T00:25:37;3.30;;;3.00;;
5475;SDS011;2760;50.000;9.194;2022-08-03T00:28:04;3.37;;;3.07;;
5475;SDS011;2760;50.000;9.194;2022-08-03T00:30:32;3.20;;;3.00;;
5475;SDS011;2760;50.000;9.194;2022-08-03T00:32:59;3.10;;;2.80;;
5475;SDS011;2760;50.000;9.194;2022-08-03T00:35:28;2.90;;;2.70;;
5475;SDS011;2760;50.000;9.194;2022-08-03T00:37:55;3.73;;;3.33;;
5475;SDS011;2760;50.000;9.194;2022-08-03T00:40:23;4.90;;;3.27;;
5475;SDS011;2760;50.000;9.194;2022-08-03T00:42:50;3.07;;;2.87;;
5475;SDS011;2760;50.000;9.194;2022-08-03T00:45:19;3.40;;;3.10;;
5475;SDS011;2760;50.000;9.194;2022-08-03T00:47:47;3.10;;;2.90;;
5475;SDS011;2760;50.000;9.194;2022-08-03T00:50:15;3.70;;;3.20;;
5475;SDS011;2760;50.000;9.194;2022-08-03T00:52:45;3.20;;;3.00;;
5475;SDS011;2760;50.000;9.194;2022-08-03T00:55:12;3.83;;;3.53;;
5475;SDS011;2760;50.000;9.194;2022-08-03T00:57:39;3.53;;;3.23;;
5475;SDS011;2760;50.000;9.194;2022-08-03T01:00:09;3.43;;;3.13;;
5475;SDS011;2760;50.000;9.194;2022-08-03T01:02:38;3.60;;;3.30;;
5475;SDS011;2760;50.000;9.194;2022-08-03T01:05:06;3.47;;;3.27;;
5475;SDS011;2760;50.000;9.194;2022-08-03T01:07:36;3.07;;;2.87;;
5475;SDS011;2760;50.000;9.194;2022-08-03T01:10:12;3.20;;;3.00;;
5475;SDS011;2760;50.000;9.194;2022-08-03T01:12:47;4.23;;;3.20;;
5475;SDS011;2760;50.000;9.194;2022-08-03T01:15:24;3.70;;;3.40;;
5475;SDS011;2760;50.000;9.194;2022-08-03T01:17:58;5.70;;;3.50;;
5475;SDS011;2760;50.000;9.194;2022-08-03T01:20:30;3.40;;;3.20;;
5475;SDS011;2760;50.000;9.194;2022-08-03T01:23:05;3.70;;;3.40;;
5475;SDS011;2760;50.000;9.194;2022-08-03T01:25:42;8.10;;;3.73;;
5475;SDS011;2760;50.000;9.194;2022-08-03T01:28:31;7.10;;;3.10;;
5475;SDS011;2760;50.000;9.194;2022-08-03T01:31:09;3.60;;;3.27;;
5475;SDS011;2760;50.000;9.194;2022-08-03T01:33:39;3.47;;;3.17;;
5475;SDS011;2760;50.000;9.194;2022-08-03T01:36:08;6.93;;;3.30;;
5475;SDS011;2760;50.000;9.194;2022-08-03T01:38:40;3.30;;;3.10;;
5475;SDS011;2760;50.000;9.194;2022-08-03T01:41:10;3.50;;;3.20;;
5475;SDS011;2760;50.000;9.194;2022-08-03T01:43:41;4.10;;;3.80;;
5475;SDS011;2760;50.000;9.194;2022-08-03T01:46:14;3.93;;;3.37;;
5475;SDS011;2760;50.000;9.194;2022-08-03T01:48:43;3.23;;;2.93;;
5475;SDS011;2760;50.000;9.194;2022-08-03T01:51:11;3.60;;;3.30;;
5475;SDS011;2760;50.000;9.194;2022-08-03T01:53:40;3.53;;;3.23;;
5475;SDS011;2760;50.000;9.194;2022-08-03T01:56:08;3.73;;;3.43;;
5475;SDS011;2760;50.000;9.194;2022-08-03T01:58:37;4.90;;;3.80;;
5475;SDS011;2760;50.000;9.194;2022-08-03T02:01:05;3.10;;;2.90;;
5475;SDS011;2760;50.000;9.194;2022-08-03T02:03:37;3.53;;;3.27;;
5475;SDS011;2760;50.000;9.194;2022-08-03T02:06:06;3.87;;;3.57;;
5475;SDS011;2760;50.000;9.194;2022-08-03T02:08:36;3.73;;;3.40;;
5475;SDS011;2760;50.000;9.194;2022-08-03T02:11:04;4.00;;;3.70;;
5475;SDS011;2760;50.000;9.194;2022-08-03T02:13:32;3.43;;;3.23;;
5475;SDS011;2760;50.000;9.194;2022-08-03T02:16:00;4.57;;;3.50;;
5475;SDS011;2760;50.000;9.194;2022-08-03T02:18:29;3.50;;;3.20;;
5475;SDS011;2760;50.000;9.194;2022-08-03T02:20:59;4.00;;;3.60;;
5475;SDS011;2760;50.000;9.194;2022-08-03T02:23:28;3.83;;;3.43;;
5475;SDS011;2760;50.000;9.194;2022-08-03T02:25:57;3.50;;;3.20;;
5475;SDS011;2760;50.000;9.194;2022-08-03T02:28:31;4.13;;;3.73;;
5475;SDS011;2760;50.000;9.194;2022-08-03T02:31:01;3.60;;;3.30;;
5475;SDS011;2760;50.000;9.194;2022-08-03T02:33:31;3.47;;;3.17;;
5475;SDS011;2760;50.000;9.194;2022-08-03T02:36:03;4.07;;;3.50;;
5475;SDS011;2760;50.000;9.194;2022-08-03T02:38:35;11.77;;;3.50;;
5475;SDS011;2760;50.000;9.194;2022-08-03T02:41:06;5.13;;;3.53;;
5475;SDS011;2760;50.000;9.194;2022-08-03T02:43:38;4.10;;;3.80;;
5475;SDS011;2760;50.000;9.194;2022-08-03T02:46:07;4.10;;;3.67;;
5475;SDS011;2760;50.000;9.194;2022-08-03T02:48:36;3.67;;;3.47;;
5475;SDS011;2760;50.000;9.194;2022-08-03T02:51:06;4.40;;;3.40;;
5475;SDS011;2760;50.000;9.194;2022-08-03T02:53:35;3.40;;;3.10;;
5475;SDS011;2760;50.000;9.194;2022-08-03T02:56:02;4.80;;;3.57;;
5475;SDS011;2760;50.000;9.194;2022-08-03T02:58:32;3.87;;;3.67;;
5475;SDS011;2760;50.000;9.194;2022-08-03T03:00:59;3.60;;;3.30;;
5475;SDS011;2760;50.000;9.194;2022-08-03T03:03:28;3.40;;;3.20;;
5475;SDS011;2760;50.000;9.194;2022-08-03T03:05:55;4.23;;;3.87;;
5475;SDS011;2760;50.000;9.194;2022-08-03T03:08:24;3.60;;;3.40;;
5475;SDS011;2760;50.000;9.194;2022-08-03T03:10:52;3.70;;;3.37;;
5475;SDS011;2760;50.000;9.194;2022-08-03T03:13:21;4.30;;;3.97;;
5475;SDS011;2760;50.000;9.194;2022-08-03T03:15:49;4.40;;;3.67;;
5475;SDS011;2760;50.000;9.194;2022-08-03T03:18:17;5.30;;;3.60;;
5475;SDS011;2760;50.000;9.194;2022-08-03T03:20:46;4.00;;;3.70;;
5475;SDS011;2760;50.000;9.194;2022-08-03T03:23:15;4.03;;;3.60;;
5475;SDS011;2760;50.000;9.194;2022-08-03T03:25:44;4.60;;;3.33;;
5475;SDS011;2760;50.000;9.194;2022-08-03T03:28:11;3.60;;;3.30;;
5475;SDS011;2760;50.000;9.194;2022-08-03T03:30:39;4.03;;;3.73;;
5475;SDS011;2760;50.000;9.194;2022-08-03T03:33:06;4.53;;;3.47;;
5475;SDS011;2760;50.000;9.194;2022-08-03T03:35:33;4.70;;;3.40;;
5475;SDS011;2760;50.000;9.194;2022-08-03T03:38:00;5.00;;;3.50;;
5475;SDS011;2760;50.000;9.194;2022-08-03T03:40:27;3.90;;;3.60;;
5475;SDS011;2760;50.000;9.194;2022-08-03T03:42:55;3.93;;;3.47;;
5475;SDS011;2760;50.000;9.194;2022-08-03T03:45:22;3.27;;;3.07;;
5475;SDS011;2760;50.000;9.194;2022-08-03T03:47:50;3.90;;;3.60;;
5475;SDS011;2760;50.000;9.194;2022-08-03T03:50:17;3.40;;;3.10;;
5475;SDS011;2760;50.000;9.194;2022-08-03T03:52:44;4.57;;;4.17;;
5475;SDS011;2760;50.000;9.194;2022-08-03T03:55:14;3.40;;;3.20;;
5475;SDS011;2760;50.000;9.194;2022-08-03T03:57:42;3.97;;;3.67;;
5475;SDS011;2760;50.000;9.194;2022-08-03T04:00:11;3.80;;;3.50;;
5475;SDS011;2760;50.000;9.194;2022-08-03T04:02:39;6.80;;;3.80;;
5475;SDS011;2760;50.000;9.194;2022-08-03T04:05:07;4.33;;;3.63;;
5475;SDS011;2760;50.000;9.194;2022-08-03T04:08:05;3.90;;;3.50;;
5475;SDS011;2760;50.000;9.194;2022-08-03T04:10:53;5.70;;;3.80;;
5475;SDS011;2760;50.000;9.194;2022-08-03T04:13:37;3.97;;;3.57;;
5475;SDS011;2760;50.000;9.194;2022-08-03T04:16:09;4.93;;;4.00;;
5475;SDS011;2760;50.000;9.194;2022-08-03T04:18:39;4.60;;;3.87;;
5475;SDS011;2760;50.000;9.194;2022-08-03T04:21:08;5.20;;;3.77;;
5475;SDS011;2760;50.000;9.194;2022-08-03T04:23:39;3.93;;;3.63;;
5475;SDS011;2760;50.000;9.194;2022-08-03T04:26:10;3.87;;;3.53;;
5475;SDS011;2760;50.000;9.194;2022-08-03T04:28:40;3.70;;;3.47;;
5475;SDS011;2760;50.000;9.194;2022-08-03T04:31:11;4.10;;;3.80;;
5475;SDS011;2760;50.000;9.194;2022-08-03T04:33:40;5.40;;;4.00;;
5475;SDS011;2760;50.000;9.194;2022-08-03T04:36:10;3.50;;;3.20;;
5475;SDS011;2760;50.000;9.194;2022-08-03T04:38:43;5.37;;;3.57;;
5475;SDS011;2760;50.000;9.194;2022-08-03T04:41:19;3.40;;;3.20;;
5475;SDS011;2760;50.000;9.194;2022-08-03T04:43:50;3.87;;;3.50;;
5475;SDS011;2760;50.000;9.194;2022-08-03T04:46:22;3.70;;;3.50;;
5475;SDS011;2760;50.000;9.194;2022-08-03T04:48:51;4.13;;;3.60;;
5475;SDS011;2760;50.000;9.194;2022-08-03T04:51:19;4.93;;;3.90;;
5475;SDS011;2760;50.000;9.194;2022-08-03T04:53:46;5.40;;;3.77;;
5475;SDS011;2760;50.000;9.194;2022-08-03T04:56:13;5.23;;;3.23;;
5475;SDS011;2760;50.000;9.194;2022-08-03T04:58:40;7.13;;;4.20;;
5475;SDS011;2760;50.000;9.194;2022-08-03T05:01:07;3.90;;;3.50;;
5475;SDS011;2760;50.000;9.194;2022-08-03T05:03:36;6.90;;;3.80;;
5475;SDS011;2760;50.000;9.194;2022-08-03T05:06:03;4.70;;;3.87;;
5475;SDS011;2760;50.000;9.194;2022-08-03T05:08:31;3.03;;;2.83;;
5475;SDS011;2760;50.000;9.194;2022-08-03T05:10:58;3.17;;;2.87;;
5475;SDS011;2760;50.000;9.194;2022-08-03T05:13:25;6.83;;;3.43;;
5475;SDS011;2760;50.000;9.194;2022-08-03T05:15:52;3.87;;;3.47;;
5475;SDS011;2760;50.000;9.194;2022-08-03T05:18:19;4.40;;;4.00;;
5475;SDS011;2760;50.000;9.194;2022-08-03T05:20:47;3.30;;;3.10;;
5475;SDS011;2760;50.000;9.194;2022-08-03T05:23:14;4.07;;;3.60;;
5475;SDS011;2760;50.000;9.194;2022-08-03T05:25:42;4.47;;;3.60;;
5475;SDS011;2760;50.000;9.194;2022-08-03T05:28:09;4.13;;;3.20;;
5475;SDS011;2760;50.000;9.194;2022-08-03T05:30:36;3.53;;;3.23;;
5475;SDS011;2760;50.000;9.194;2022-08-03T05:33:03;4.03;;;2.93;;
5475;SDS011;2760;50.000;9.194;2022-08-03T05:35:30;4.10;;;3.70;;
5475;SDS011;2760;50.000;9.194;2022-08-03T05:38:00;8.30;;;3.50;;
5475;SDS011;2760;50.000;9.194;2022-08-03T05:40:27;3.63;;;3.33;;
5475;SDS011;2760;50.000;9.194;2022-08-03T05:42:55;3.90;;;3.50;;
5475;SDS011;2760;50.000;9.194;2022-08-03T05:45:23;4.40;;;4.00;;
5475;SDS011;2760;50.000;9.194;2022-08-03T05:47:51;3.73;;;3.27;;
5475;SDS011;2760;50.000;9.194;2022-08-03T05:50:18;3.73;;;3.20;;
5475;SDS011;2760;50.000;9.194;2022-08-03T05:52:46;8.20;;;2.90;;
5475;SDS011;2760;50.000;9.194;2022-08-03T05:55:14;3.27;;;2.87;;
5475;SDS011;2760;50.000;9.194;2022-08-03T05:57:42;3.50;;;3.20;;
5475;SDS011;2760;50.000;9.194;2022-08-03T06:00:12;4.50;;;3.63;;
5475;SDS011;2760;50.000;9.194;2022-08-03T06:02:39;3.03;;;2.83;;
5475;SDS011;2760;50.000;9.194;2022-08-03T06:05:07;3.77;;;3.10;;
5475;SDS011;2760;50.000;9.194;2022-08-03T06:07:35;3.37;;;3.07;;
5475;SDS011;2760;50.000;9.194;2022-08-03T06:10:03;4.43;;;3.40;;
5475;SDS011;2760;50.000;9.194;2022-08-03T06:12:32;3.97;;;3.60;;
5475;SDS011;2760;50.000;9.194;2022-08-03T06:15:00;9.80;;;3.50;;
5475;SDS011;2760;50.000;9.194;2022-08-03T06:17:28;3.63;;;3.27;;
5475;SDS011;2760;50.000;9.194;2022-08-03T06:19:55;2.87;;;2.67;;
5475;SDS011;2760;50.000;9.194;2022-08-03T06:22:22;3.73;;;2.93;;
5475;SDS011;2760;50.000;9.194;2022-08-03T06:24:49;4.13;;;3.07;;
5475;SDS011;2760;50.000;9.194;2022-08-03T06:27:16;3.57;;;3.27;;
5475;SDS011;2760;50.000;9.194;2022-08-03T06:29:44;3.50;;;3.20;;
5475;SDS011;2760;50.000;9.194;2022-08-03T06:32:12;2.90;;;2.70;;
5475;SDS011;2760;50.000;9.194;2022-08-03T06:34:39;3.83;;;2.80;;
5475;SDS011;2760;50.000;9.194;2022-08-03T06:37:06;6.77;;;3.70;;
5475;SDS011;2760;50.000;9.194;2022-08-03T06:39:33;3.63;;;3.03;;
5475;SDS011;2760;50.000;9.194;2022-08-03T06:42:00;3.50;;;3.30;;
5475;SDS011;2760;50.000;9.194;2022-08-03T06:44:27;4.60;;;3.33;;
5475;SDS011;2760;50.000;9.194;2022-08-03T06:46:55;4.30;;;2.97;;
5475;SDS011;2760;50.000;9.194;2022-08-03T06:49:23;3.13;;;2.90;;
5475;SDS011;2760;50.000;9.194;2022-08-03T06:51:50;4.30;;;3.27;;
5475;SDS011;2760;50.000;9.194;2022-08-03T06:54:18;3.60;;;3.07;;
5475;SDS011;2760;50.000;9.194;2022-08-03T06:56:46;3.73;;;3.37;;
5475;SDS011;2760;50.000;9.194;2022-08-03T06:59:13;3.07;;;2.77;;
5475;SDS011;2760;50.000;9.194;2022-08-03T07:01:40;3.77;;;3.27;;
5475;SDS011;2760;50.000;9.194;2022-08-03T07:04:09;5.43;;;2.87;;
5475;SDS011;2760;50.000;9.194;2022-08-03T07:06:36;4.43;;;2.97;;
5475;SDS011;2760;50.000;9.194;2022-08-03T07:09:03;7.63;;;3.00;;
5475;SDS011;2760;50.000;9.194;2022-08-03T07:11:30;3.17;;;2.73;;
5475;SDS011;2760;50.000;9.194;2022-08-03T07:13:57;2.90;;;2.70;;
5475;SDS011;2760;50.000;9.194;2022-08-03T07:16:24;3.40;;;3.10;;
5475;SDS011;2760;50.000;9.194;2022-08-03T07:18:51;6.17;;;3.30;;
5475;SDS011;2760;50.000;9.194;2022-08-03T07:21:19;5.03;;;3.77;;
5475;SDS011;2760;50.000;9.194;2022-08-03T07:23:46;2.73;;;2.53;;
5475;SDS011;2760;50.000;9.194;2022-08-03T07:26:13;3.53;;;2.67;;
5475;SDS011;2760;50.000;9.194;2022-08-03T07:28:40;3.10;;;2.60;;
5475;SDS011;2760;50.000;9.194;2022-08-03T07:31:07;5.37;;;2.80;;
5475;SDS011;2760;50.000;9.194;2022-08-03T07:33:34;11.13;;;2.73;;
5475;SDS011;2760;50.000;9.194;2022-08-03T07:36:01;2.50;;;2.30;;
5475;SDS011;2760;50.000;9.194;2022-08-03T07:38:30;5.50;;;3.17;;
5475;SDS011;2760;50.000;9.194;2022-08-03T07:40:57;2.53;;;2.33;;
5475;SDS011;2760;50.000;9.194;2022-08-03T07:43:24;2.70;;;2.50;;
5475;SDS011;2760;50.000;9.194;2022-08-03T07:45:51;2.90;;;2.70;;
5475;SDS011;2760;50.000;9.194;2022-08-03T07:48:18;3.73;;;2.83;;
5475;SDS011;2760;50.000;9.194;2022-08-03T07:50:45;3.80;;;2.43;;
5475;SDS011;2760;50.000;9.194;2022-08-03T07:53:12;2.93;;;2.60;;
5475;SDS011;2760;50.000;9.194;2022-08-03T07:55:41;4.70;;;2.60;;
5475;SDS011;2760;50.000;9.194;2022-08-03T07:58:08;2.60;;;2.40;;
5475;SDS011;2760;50.000;9.194;2022-08-03T08:00:40;4.60;;;2.40;;
5475;SDS011;2760;50.000;9.194;2022-08-03T08:03:08;3.50;;;2.73;;
5475;SDS011;2760;50.000;9.194;2022-08-03T08:05:36;4.30;;;2.10;;
5475;SDS011;2760;50.000;9.194;2022-08-03T08:08:03;2.63;;;2.40;;
5475;SDS011;2760;50.000;9.194;2022-08-03T08:10:30;3.20;;;2.30;;
5475;SDS011;2760;50.000;9.194;2022-08-03T08:12:59;2.40;;;2.30;;
5475;SDS011;2760;50.000;9.194;2022-08-03T08:15:27;3.30;;;2.90;;
5475;SDS011;2760;50.000;9.194;2022-08-03T08:17:55;3.60;;;3.30;;
5475;SDS011;2760;50.000;9.194;2022-08-03T08:20:24;2.50;;;2.30;;
5475;SDS011;2760;50.000;9.194;2022-08-03T08:22:53;2.97;;;2.20;;
5475;SDS011;2760;50.000;9.194;2022-08-03T08:25:22;2.50;;;2.30;;
5475;SDS011;2760;50.000;9.194;2022-08-03T08:27:49;2.83;;;2.63;;
5475;SDS011;2760;50.000;9.194;2022-08-03T08:30:18;2.73;;;2.53;;
5475;SDS011;2760;50.000;9.194;2022-08-03T08:32:46;2.17;;;2.07;;
5475;SDS011;2760;50.000;9.194;2022-08-03T08:35:14;6.00;;;2.37;;
5475;SDS011;2760;50.000;9.194;2022-08-03T08:37:41;8.00;;;2.30;;
5475;SDS011;2760;50.000;9.194;2022-08-03T08:40:09;3.20;;;2.33;;
5475;SDS011;2760;50.000;9.194;2022-08-03T08:42:37;4.87;;;2.27;;
5475;SDS011;2760;50.000;9.194;2022-08-03T08:45:05;3.37;;;2.30;;
5475;SDS011;2760;50.000;9.194;2022-08-03T08:47:36;2.20;;;2.00;;
5475;SDS011;2760;50.000;9.194;2022-08-03T08:50:04;1.83;;;1.73;;
5475;SDS011;2760;50.000;9.194;2022-08-03T08:52:33;23.37;;;4.17;;
5475;SDS011;2760;50.000;9.194;2022-08-03T08:55:02;2.97;;;2.20;;
5475;SDS011;2760;50.000;9.194;2022-08-03T08:57:32;9.70;;;2.83;;
5475;SDS011;2760;50.000;9.194;2022-08-03T09:00:03;3.57;;;2.03;;
5475;SDS011;2760;50.000;9.194;2022-08-03T09:02:33;4.03;;;2.50;;
5475;SDS011;2760;50.000;9.194;2022-08-03T09:05:02;3.10;;;2.40;;
5475;SDS011;2760;50.000;9.194;2022-08-03T09:07:29;2.70;;;2.10;;
5475;SDS011;2760;50.000;9.194;2022-08-03T09:09:56;2.77;;;2.60;;
5475;SDS011;2760;50.000;9.194;2022-08-03T09:12:23;4.40;;;1.97;;
5475;SDS011;2760;50.000;9.194;2022-08-03T09:14:50;5.40;;;2.50;;
5475;SDS011;2760;50.000;9.194;2022-08-03T09:17:17;2.53;;;2.33;;
5475;SDS011;2760;50.000;9.194;2022-08-03T09:19:47;2.37;;;2.17;;
5475;SDS011;2760;50.000;9.194;2022-08-03T09:22:33;2.17;;;2.00;;
5475;SDS011;2760;50.000;9.194;2022-08-03T09:25:01;3.63;;;2.40;;
5475;SDS011;2760;50.000;9.194;2022-08-03T09:27:40;2.70;;;1.80;;
5475;SDS011;2760;50.000;9.194;2022-08-03T09:30:11;9.20;;;4.27;;
5475;SDS011;2760;50.000;9.194;2022-08-03T09:32:39;2.57;;;2.37;;
5475;SDS011;2760;50.000;9.194;2022-08-03T09:35:10;2.67;;;2.33;;
5475;SDS011;2760;50.000;9.194;2022-08-03T09:37:39;2.40;;;2.20;;
5475;SDS011;2760;50.000;9.194;2022-08-03T09:40:07;3.23;;;2.20;;
5475;SDS011;2760;50.000;9.194;2022-08-03T09:42:34;3.90;;;3.60;;
5475;SDS011;2760;50.000;9.194;2022-08-03T09:45:03;2.20;;;2.10;;
5475;SDS011;2760;50.000;9.194;2022-08-03T09:47:31;4.77;;;2.30;;
5475;SDS011;2760;50.000;9.194;2022-08-03T09:50:01;3.60;;;2.20;;
5475;SDS011;2760;50.000;9.194;2022-08-03T09:52:31;2.17;;;1.97;;
5475;SDS011;2760;50.000;9.194;2022-08-03T09:55:00;1.90;;;1.80;;
5475;SDS011;2760;50.000;9.194;2022-08-03T09:57:29;2.20;;;2.10;;
5475;SDS011;2760;50.000;9.194;2022-08-03T10:00:04;4.77;;;2.67;;
5475;SDS011;2760;50.000;9.194;2022-08-03T10:02:38;2.03;;;1.90;;
5475;SDS011;2760;50.000;9.194;2022-08-03T10:05:07;2.73;;;2.00;;
5475;SDS011;2760;50.000;9.194;2022-08-03T10:07:43;2.10;;;2.00;;
5475;SDS011;2760;50.000;9.194;2022-08-03T10:10:11;2.30;;;2.20;;
5475;SDS011;2760;50.000;9.194;2022-08-03T10:12:39;1.50;;;1.40;;
5475;SDS011;2760;50.000;9.194;2022-08-03T10:15:07;2.10;;;1.90;;
5475;SDS011;2760;50.000;9.194;2022-08-03T10:17:36;3.17;;;1.87;;
5475;SDS011;2760;50.000;9.194;2022-08-03T10:20:04;1.80;;;1.70;;
5475;SDS011;2760;50.000;9.194;2022-08-03T10:22:33;1.90;;;1.80;;
5475;SDS011;2760;50.000;9.194;2022-08-03T10:25:03;1.70;;;1.60;;
5475;SDS011;2760;50.000;9.194;2022-08-03T10:27:34;1.97;;;1.77;;
5475;SDS011;2760;50.000;9.194;2022-08-03T10:30:04;1.93;;;1.83;;
5475;SDS011;2760;50.000;9.194;2022-08-03T10:32:33;2.00;;;1.90;;
5475;SDS011;2760;50.000;9.194;2022-08-03T10:35:06;2.37;;;2.17;;
5475;SDS011;2760;50.000;9.194;2022-08-03T10:37:36;2.17;;;2.07;;
5475;SDS011;2760;50.000;9.194;2022-08-03T10:40:11;3.43;;;2.50;;
5475;SDS011;2760;50.000;9.194;2022-08-03T10:42:40;3.23;;;2.03;;
5475;SDS011;2760;50.000;9.194;2022-08-03T10:45:11;2.10;;;1.80;;
5475;SDS011;2760;50.000;9.194;2022-08-03T10:47:40;2.27;;;2.17;;
5475;SDS011;2760;50.000;9.194;2022-08-03T10:50:07;2.37;;;2.20;;
5475;SDS011;2760;50.000;9.194;2022-08-03T10:52:42;2.17;;;1.90;;
5475;SDS011;2760;50.000;9.194;2022-08-03T10:55:30;2.33;;;2.13;;
5475;SDS011;2760;50.000;9.194;2022-08-03T11:01:15;3.57;;;2.23;;
5475;SDS011;2760;50.000;9.194;2022-08-03T11:06:40;2.17;;;2.07;;
5475;SDS011;2760;50.000;9.194;2022-08-03T11:09:14;2.33;;;2.13;;
5475;SDS011;2760;50.000;9.194;2022-08-03T11:11:45;2.07;;;1.97;;
5475;SDS011;2760;50.000;9.194;2022-08-03T11:14:14;1.93;;;1.83;;
5475;SDS011;2760;50.000;9.194;2022-08-03T11:16:43;2.47;;;2.27;;
5475;SDS011;2760;50.000;9.194;2022-08-03T11:19:13;2.90;;;2.60;;
5475;SDS011;2760;50.000;9.194;2022-08-03T11:21:56;1.80;;;1.70;;
5475;SDS011;2760;50.000;9.194;2022-08-03T11:27:25;2.93;;;2.33;;
5475;SDS011;2760;50.000;9.194;2022-08-03T11:29:54;4.57;;;3.00;;
5475;SDS011;2760;50.000;9.194;2022-08-03T11:35:19;6.67;;;2.30;;
5475;SDS011;2760;50.000;9.194;2022-08-03T11:38:03;2.17;;;1.97;;
5475;SDS011;2760;50.000;9.194;2022-08-03T11:40:35;2.43;;;2.23;;
5475;SDS011;2760;50.000;9.194;2022-08-03T11:43:07;2.63;;;2.20;;
5475;SDS011;2760;50.000;9.194;2022-08-03T11:45:36;2.47;;;2.27;;
5475;SDS011;2760;50.000;9.194;2022-08-03T11:48:12;5.47;;;3.80;;
5475;SDS011;2760;50.000;9.194;2022-08-03T11:50:41;2.63;;;2.43;;
5475;SDS011;2760;50.000;9.194;2022-08-03T11:53:12;3.00;;;2.60;;
5475;SDS011;2760;50.000;9.194;2022-08-03T11:55:41;2.30;;;2.20;;
5475;SDS011;2760;50.000;9.194;2022-08-03T11:58:18;2.20;;;2.10;;
5475;SDS011;2760;50.000;9.194;2022-08-03T12:00:46;2.37;;;2.27;;
5475;SDS011;2760;50.000;9.194;2022-08-03T12:03:14;3.43;;;2.63;;
5475;SDS011;2760;50.000;9.194;2022-08-03T12:05:43;10.90;;;2.87;;
5475;SDS011;2760;50.000;9.194;2022-08-03T12:08:13;2.57;;;2.33;;
5475;SDS011;2760;50.000;9.194;2022-08-03T12:10:45;2.77;;;2.57;;
5475;SDS011;2760;50.000;9.194;2022-08-03T12:13:14;2.50;;;2.30;;
5475;SDS011;2760;50.000;9.194;2022-08-03T12:15:43;2.70;;;2.50;;
5475;SDS011;2760;50.000;9.194;2022-08-03T12:18:17;2.70;;;2.60;;
5475;SDS011;2760;50.000;9.194;2022-08-03T12:20:45;3.17;;;2.97;;
5475;SDS011;2760;50.000;9.194;2022-08-03T12:23:12;4.97;;;3.17;;
5475;SDS011;2760;50.000;9.194;2022-08-03T12:25:40;3.13;;;2.90;;
5475;SDS011;2760;50.000;9.194;2022-08-03T12:28:09;2.60;;;2.40;;
5475;SDS011;2760;50.000;9.194;2022-08-03T12:30:40;3.57;;;2.70;;
5475;SDS011;2760;50.000;9.194;2022-08-03T12:33:17;4.17;;;2.30;;
5475;SDS011;2760;50.000;9.194;2022-08-03T12:35:49;2.90;;;2.60;;
5475;SDS011;2760;50.000;9.194;2022-08-03T12:38:28;2.70;;;2.43;;
5475;SDS011;2760;50.000;9.194;2022-08-03T12:40:57;4.50;;;2.87;;
5475;SDS011;2760;50.000;9.194;2022-08-03T12:43:31;3.30;;;3.00;;
5475;SDS011;2760;50.000;9.194;2022-08-03T12:46:09;6.40;;;3.30;;
5475;SDS011;2760;50.000;9.194;2022-08-03T12:48:57;2.50;;;2.33;;
5475;SDS011;2760;50.000;9.194;2022-08-03T12:51:29;4.70;;;2.10;;
5475;SDS011;2760;50.000;9.194;2022-08-03T12:53:58;4.63;;;2.30;;
5475;SDS011;2760;50.000;9.194;2022-08-03T12:56:25;2.23;;;2.13;;
5475;SDS011;2760;50.000;9.194;2022-08-03T12:58:52;2.50;;;2.30;;
5475;SDS011;2760;50.000;9.194;2022-08-03T13:01:20;2.27;;;2.17;;
5475;SDS011;2760;50.000;9.194;2022-08-03T13:03:49;2.30;;;2.10;;
5475;SDS011;2760;50.000;9.194;2022-08-03T13:06:19;3.20;;;2.27;;
5475;SDS011;2760;50.000;9.194;2022-08-03T13:08:47;2.23;;;2.13;;
5475;SDS011;2760;50.000;9.194;2022-08-03T13:11:22;4.50;;;2.60;;
5475;SDS011;2760;50.000;9.194;2022-08-03T13:13:51;2.17;;;2.07;;
5475;SDS011;2760;50.000;9.194;2022-08-03T13:16:19;4.20;;;2.10;;
5475;SDS011;2760;50.000;9.194;2022-08-03T13:18:48;2.40;;;2.20;;
5475;SDS011;2760;50.000;9.194;2022-08-03T13:21:17;2.57;;;1.90;;
5475;SDS011;2760;50.000;9.194;2022-08-03T13:23:45;2.10;;;2.00;;
5475;SDS011;2760;50.000;9.194;2022-08-03T13:26:13;4.57;;;2.40;;
5475;SDS011;2760;50.000;9.194;2022-08-03T13:28:40;6.50;;;3.23;;
5475;SDS011;2760;50.000;9.194;2022-08-03T13:31:07;2.00;;;1.90;;
5475;SDS011;2760;50.000;9.194;2022-08-03T13:33:35;2.40;;;2.20;;
5475;SDS011;2760;50.000;9.194;2022-08-03T13:36:03;2.30;;;2.20;;
5475;SDS011;2760;50.000;9.194;2022-08-03T13:38:30;2.47;;;1.90;;
5475;SDS011;2760;50.000;9.194;2022-08-03T13:40:58;2.10;;;2.00;;
5475;SDS011;2760;50.000;9.194;2022-08-03T13:43:27;2.60;;;2.40;;
5475;SDS011;2760;50.000;9.194;2022-08-03T13:45:55;2.97;;;2.77;;
5475;SDS011;2760;50.000;9.194;2022-08-03T13:48:22;2.20;;;2.00;;
5475;SDS011;2760;50.000;9.194;2022-08-03T13:50:50;4.37;;;2.20;;
5475;SDS011;2760;50.000;9.194;2022-08-03T13:53:17;8.30;;;2.40;;
5475;SDS011;2760;50.000;9.194;2022-08-03T13:55:44;2.63;;;2.43;;
5475;SDS011;2760;50.000;9.194;2022-08-03T13:58:11;2.77;;;2.20;;
5475;SDS011;2760;50.000;9.194;2022-08-03T14:00:38;5.20;;;2.10;;
5475;SDS011;2760;50.000;9.194;2022-08-03T14:03:05;3.60;;;2.27;;
5475;SDS011;2760;50.000;9.194;2022-08-03T14:05:32;2.40;;;2.20;;
5475;SDS011;2760;50.000;9.194;2022-08-03T14:08:01;2.23;;;2.07;;
5475;SDS011;2760;50.000;9.194;2022-08-03T14:10:29;2.47;;;2.30;;
5475;SDS011;2760;50.000;9.194;2022-08-03T14:12:56;2.17;;;2.07;;
5475;SDS011;2760;50.000;9.194;2022-08-03T14:15:24;3.20;;;2.00;;
5475;SDS011;2760;50.000;9.194;2022-08-03T14:17:52;2.27;;;2.17;;
5475;SDS011;2760;50.000;9.194;2022-08-03T14:20:20;3.10;;;2.50;;
5475;SDS011;2760;50.000;9.194;2022-08-03T14:22:47;4.33;;;2.23;;
5475;SDS011;2760;50.000;9.194;2022-08-03T14:25:15;3.13;;;2.10;;
5475;SDS011;2760;50.000;9.194;2022-08-03T14:27:43;2.47;;;2.37;;
5475;SDS011;2760;50.000;9.194;2022-08-03T14:30:11;3.53;;;2.53;;
5475;SDS011;2760;50.000;9.194;2022-08-03T14:32:38;2.77;;;2.57;;
5475;SDS011;2760;50.000;9.194;2022-08-03T14:35:05;3.93;;;2.47;;
5475;SDS011;2760;50.000;9.194;2022-08-03T14:37:33;2.90;;;2.70;;
5475;SDS011;2760;50.000;9.194;2022-08-03T14:40:00;3.00;;;2.33;;
5475;SDS011;2760;50.000;9.194;2022-08-03T14:42:28;2.50;;;2.20;;
5475;SDS011;2760;50.000;9.194;2022-08-03T14:44:56;2.50;;;2.40;;
5475;SDS011;2760;50.000;9.194;2022-08-03T14:47:23;3.33;;;2.77;;
5475;SDS011;2760;50.000;9.194;2022-08-03T14:49:50;2.60;;;2.40;;
5475;SDS011;2760;50.000;9.194;2022-08-03T14:52:17;2.50;;;2.30;;
5475;SDS011;2760;50.000;9.194;2022-08-03T14:54:44;3.93;;;2.47;;
5475;SDS011;2760;50.000;9.194;2022-08-03T14:57:12;2.50;;;2.30;;
5475;SDS011;2760;50.000;9.194;2022-08-03T14:59:43;1.90;;;1.80;;
5475;SDS011;2760;50.000;9.194;2022-08-03T15:02:10;2.50;;;2.20;;
5475;SDS011;2760;50.000;9.194;2022-08-03T15:04:37;2.67;;;2.47;;
5475;SDS011;2760;50.000;9.194;2022-08-03T15:07:03;4.10;;;2.47;;
5475;SDS011;2760;50.000;9.194;2022-08-03T15:09:31;3.17;;;2.60;;
5475;SDS011;2760;50.000;9.194;2022-08-03T15:11:58;2.77;;;2.57;;
5475;SDS011;2760;50.000;9.194;2022-08-03T15:14:26;3.30;;;2.67;;
5475;SDS011;2760;50.000;9.194;2022-08-03T15:16:54;2.43;;;2.23;;
5475;SDS011;2760;50.000;9.194;2022-08-03T15:19:21;2.40;;;2.30;;
5475;SDS011;2760;50.000;9.194;2022-08-03T15:21:48;2.57;;;2.37;;
5475;SDS011;2760;50.000;9.194;2022-08-03T15:24:15;2.17;;;2.07;;
5475;SDS011;2760;50.000;9.194;2022-08-03T15:26:42;3.20;;;3.00;;
5475;SDS011;2760;50.000;9.194;2022-08-03T15:29:09;3.13;;;2.93;;
5475;SDS011;2760;50.000;9.194;2022-08-03T15:31:37;3.53;;;2.70;;
5475;SDS011;2760;50.000;9.194;2022-08-03T15:34:09;2.37;;;2.20;;
5475;SDS011;2760;50.000;9.194;2022-08-03T15:36:37;3.10;;;2.90;;
5475;SDS011;2760;50.000;9.194;2022-08-03T15:39:04;3.30;;;2.37;;